Time;durP1;ratioP1;P1;durP2;ratioP2;P2;SDS_P1;SDS_P2;PMS_P1;PMS_P2;Temp;Humidity;BMP_temperature;BMP_pressure;BME280_temperature;BME280_humidity;BME280_pressure;Samples;Min_cycle;Max_cycle;Signal;HPM_P1;HPM_P2
2021/03/05 00:00:15;;;;;;;26.27;15.20;;;2.70;99.90;;;-143.91;100.00;62816.50;4982791;27;100199;-63
2021/03/05 00:02:42;;;;;;;26.93;15.47;;;2.70;99.90;;;-143.91;100.00;62816.50;4951734;28;100986;-61
2021/03/05 00:05:10;;;;;;;23.23;13.43;;;2.70;99.90;;;-143.91;100.00;62816.50;4962645;28;100464;-61
2021/03/05 00:07:38;;;;;;;25.57;14.90;;;2.70;99.90;;;-143.91;100.00;62816.50;4962947;28;100115;-61
2021/03/05 00:10:07;;;;;;;27.03;15.13;;;2.80;99.90;;;-143.91;100.00;62816.50;4963871;28;100385;-61
2021/03/05 00:12:34;;;;;;;26.93;14.53;;;2.80;99.90;;;-143.91;100.00;62816.50;4979675;28;101478;-61
2021/03/05 00:15:00;;;;;;;27.07;14.13;;;2.80;99.90;;;-143.91;100.00;62816.50;4963735;28;101555;-61
2021/03/05 00:17:28;;;;;;;27.57;15.27;;;2.80;99.90;;;-143.91;100.00;62816.50;4981882;28;100567;-60
2021/03/05 00:19:54;;;;;;;28.47;15.43;;;2.70;99.90;;;-143.91;100.00;62816.50;4982882;28;100129;-59
2021/03/05 00:22:20;;;;;;;27.57;14.67;;;2.70;99.90;;;-143.91;100.00;62816.50;4982421;28;101159;-60
2021/03/05 00:24:47;;;;;;;26.50;15.30;;;2.60;99.90;;;-143.91;100.00;62816.50;4982448;28;100665;-62
2021/03/05 00:27:13;;;;;;;27.73;15.23;;;2.80;99.90;;;-143.91;100.00;62816.50;4982451;28;100745;-61
2021/03/05 00:29:40;;;;;;;27.17;14.80;;;2.80;99.90;;;-143.91;100.00;62816.50;4983431;28;100264;-60
2021/03/05 00:32:07;;;;;;;29.10;15.97;;;2.70;99.90;;;-143.91;100.00;62816.50;4982303;28;101357;-60
2021/03/05 00:34:35;;;;;;;28.50;15.00;;;2.90;99.90;;;-143.91;100.00;62816.50;4982241;28;100811;-61
2021/03/05 00:37:01;;;;;;;28.83;16.63;;;2.80;99.90;;;-143.91;100.00;62816.50;4982318;28;100452;-60
2021/03/05 00:39:28;;;;;;;33.30;16.60;;;2.90;99.90;;;-143.91;100.00;62816.50;4982176;28;100215;-61
2021/03/05 00:41:54;;;;;;;27.97;15.57;;;2.90;99.90;;;-143.91;100.00;62816.50;4981585;28;101423;-61
2021/03/05 00:44:21;;;;;;;30.87;15.40;;;2.90;99.90;;;-143.91;100.00;62816.50;4980314;28;101512;-62
2021/03/05 00:46:48;;;;;;;26.63;15.00;;;2.90;99.90;;;-143.91;100.00;62816.50;4981831;28;100352;-61
2021/03/05 00:49:15;;;;;;;27.57;16.33;;;2.90;99.90;;;-143.91;100.00;62816.50;4979753;28;100311;-60
2021/03/05 00:51:43;;;;;;;25.73;15.30;;;2.90;99.90;;;-143.91;100.00;62816.50;4980700;28;101590;-61
2021/03/05 00:54:11;;;;;;;28.97;15.27;;;2.90;99.90;;;-143.91;100.00;62816.50;4963337;28;101203;-61
2021/03/05 00:56:37;;;;;;;27.00;15.67;;;2.90;99.90;;;-143.91;100.00;62816.50;4979651;28;100308;-61
2021/03/05 00:59:05;;;;;;;28.97;15.67;;;3.10;99.90;;;-143.91;100.00;62816.50;4981966;28;100080;-60
2021/03/05 01:01:33;;;;;;;25.87;14.83;;;3.00;99.90;;;-143.91;100.00;62816.50;4962804;28;103550;-60
2021/03/05 01:04:00;;;;;;;30.57;15.77;;;3.00;99.90;;;-143.91;100.00;62816.50;4963353;28;102987;-61
2021/03/05 01:06:35;;;;;;;27.30;15.80;;;3.00;99.90;;;-143.91;100.00;62816.50;4979655;28;100882;-60
2021/03/05 01:09:08;;;;;;;28.63;15.63;;;2.90;99.90;;;-143.91;100.00;62816.50;4963421;28;100421;-60
2021/03/05 01:11:34;;;;;;;24.67;14.47;;;3.10;99.90;;;-143.91;100.00;62816.50;4982933;27;101362;-61
2021/03/05 01:14:02;;;;;;;27.10;15.60;;;2.50;99.90;;;-143.91;100.00;62816.50;4984633;28;100608;-61
2021/03/05 01:16:28;;;;;;;27.47;15.47;;;3.10;99.90;;;-143.91;100.00;62816.50;4984165;28;100554;-61
2021/03/05 01:18:55;;;;;;;30.60;17.27;;;3.10;99.90;;;-143.91;100.00;62816.50;4985442;28;100070;-60
2021/03/05 01:21:21;;;;;;;27.03;16.13;;;3.10;99.90;;;-143.91;100.00;62816.50;4984517;28;101050;-62
2021/03/05 01:23:48;;;;;;;29.73;16.13;;;2.80;99.90;;;-143.91;100.00;62816.50;4982744;28;101051;-62
2021/03/05 01:26:15;;;;;;;29.17;15.77;;;3.20;99.90;;;-143.91;100.00;62816.50;4984872;28;100502;-62
2021/03/05 01:28:45;;;;;;;27.97;15.43;;;3.20;99.90;;;-143.91;100.00;62816.50;4985682;28;100191;-60
2021/03/05 01:31:12;;;;;;;27.27;16.77;;;3.10;99.90;;;-143.91;100.00;62816.50;4983936;28;102747;-62
2021/03/05 01:33:38;;;;;;;25.87;15.80;;;3.20;99.90;;;-143.91;100.00;62816.50;4985672;28;100959;-61
2021/03/05 01:36:06;;;;;;;31.43;17.13;;;3.20;99.90;;;-143.91;100.00;62816.50;4984981;28;100606;-60
2021/03/05 01:38:33;;;;;;;29.33;17.07;;;2.00;99.90;;;-143.91;100.00;62816.50;4984889;28;100439;-60
2021/03/05 01:40:59;;;;;;;26.27;15.47;;;3.30;99.90;;;-143.91;100.00;62816.50;4983833;28;101643;-63
2021/03/05 01:43:30;;;;;;;27.23;15.97;;;3.30;99.90;;;-143.91;100.00;62816.50;4984599;28;100876;-60
2021/03/05 01:45:56;;;;;;;31.97;17.20;;;3.40;99.90;;;-143.91;100.00;62816.50;4984712;28;100262;-60
2021/03/05 01:48:23;;;;;;;34.30;17.53;;;3.30;99.90;;;-143.91;100.00;62816.50;4985341;28;100092;-60
2021/03/05 01:50:59;;;;;;;26.87;15.57;;;3.30;99.90;;;-143.91;100.00;62816.50;4984822;28;101466;-60
2021/03/05 01:53:27;;;;;;;28.30;16.03;;;3.30;99.90;;;-143.91;100.00;62816.50;4984021;28;100195;-62
2021/03/05 01:55:54;;;;;;;27.50;15.53;;;3.30;99.90;;;-143.91;100.00;62816.50;4984061;28;100498;-60
2021/03/05 01:58:22;;;;;;;26.47;15.37;;;3.50;99.90;;;-143.91;100.00;62816.50;4982582;28;100227;-63
2021/03/05 02:00:52;;;;;;;22.50;14.07;;;3.50;99.90;;;-143.91;100.00;62816.50;4982033;28;102725;-61
2021/03/05 02:03:18;;;;;;;27.87;14.20;;;3.40;99.90;;;-143.91;100.00;62816.50;4984429;28;100641;-60
2021/03/05 02:05:45;;;;;;;24.87;14.53;;;3.40;99.90;;;-143.91;100.00;62816.50;4982046;28;100351;-62
2021/03/05 02:08:13;;;;;;;27.37;15.07;;;3.40;99.90;;;-143.91;100.00;62816.50;4984611;28;100350;-60
2021/03/05 02:10:41;;;;;;;21.87;13.43;;;3.40;99.90;;;-143.91;100.00;62816.50;4986412;27;101051;-60
2021/03/05 02:13:09;;;;;;;20.80;12.20;;;3.40;99.90;;;-143.91;100.00;62816.50;5005167;27;100546;-60
2021/03/05 02:15:38;;;;;;;18.10;12.07;;;4.30;99.90;;;-143.91;100.00;62816.50;4989815;27;100415;-61
2021/03/05 02:18:15;;;;;;;18.93;11.27;;;3.30;99.90;;;-143.91;100.00;62816.50;4984700;28;100169;-60
2021/03/05 02:21:04;;;;;;;16.70;10.00;;;3.50;99.90;;;-143.91;100.00;62816.50;4983215;27;100996;-61
2021/03/05 02:23:56;;;;;;;19.97;10.57;;;3.30;99.90;;;-143.91;100.00;62816.50;4983036;27;100457;-61
2021/03/05 02:27:00;;;;;;;17.83;10.43;;;3.30;99.90;;;-143.91;100.00;62816.50;4985597;27;100324;-60
2021/03/05 02:30:22;;;;;;;15.70;10.43;;;3.20;99.90;;;-143.91;100.00;62816.50;5004057;27;100415;-62
2021/03/05 02:32:56;;;;;;;16.30;10.10;;;3.20;99.90;;;-143.91;100.00;62816.50;4964413;27;100926;-60
2021/03/05 02:35:25;;;;;;;14.87;10.33;;;3.10;99.90;;;-143.91;100.00;62816.50;5003709;27;100687;-61
2021/03/05 02:37:54;;;;;;;16.87;10.77;;;3.10;99.90;;;-143.91;100.00;62816.50;5004564;27;100106;-61
2021/03/05 02:40:27;;;;;;;17.20;10.40;;;3.20;99.90;;;-143.91;100.00;62816.50;4990001;27;100251;-61
2021/03/05 02:42:58;;;;;;;14.23;10.10;;;3.10;99.90;;;-143.91;100.00;62816.50;4983278;28;101688;-61
2021/03/05 02:45:28;;;;;;;16.53;11.00;;;3.20;99.90;;;-143.91;100.00;62816.50;4984015;27;100164;-62
2021/03/05 02:48:01;;;;;;;17.33;11.00;;;3.20;99.90;;;-143.91;100.00;62816.50;4983731;27;100335;-61
2021/03/05 02:50:29;;;;;;;16.53;11.13;;;3.30;99.90;;;-143.91;100.00;62816.50;4983952;27;100268;-62
2021/03/05 02:53:01;;;;;;;19.10;12.07;;;3.20;99.90;;;-143.91;100.00;62816.50;4982615;28;101404;-61
2021/03/05 02:55:28;;;;;;;17.87;11.07;;;3.30;99.90;;;-143.91;100.00;62816.50;4993608;27;101196;-60
2021/03/05 02:57:59;;;;;;;18.23;12.07;;;3.20;99.90;;;-143.91;100.00;62816.50;5003327;27;100322;-60
2021/03/05 03:00:26;;;;;;;18.53;11.90;;;3.30;99.90;;;-143.91;100.00;62816.50;5003034;27;100185;-62
2021/03/05 03:02:55;;;;;;;19.37;12.30;;;3.20;99.90;;;-143.91;100.00;62816.50;5001505;27;101319;-60
2021/03/05 03:05:24;;;;;;;18.40;11.77;;;3.40;99.90;;;-143.91;100.00;62816.50;5003950;27;101177;-60
2021/03/05 03:07:51;;;;;;;22.33;12.73;;;3.20;99.90;;;-143.91;100.00;62816.50;5002979;27;100169;-62
2021/03/05 03:10:22;;;;;;;20.83;12.17;;;3.20;99.90;;;-143.91;100.00;62816.50;5003014;27;100386;-61
2021/03/05 03:12:52;;;;;;;21.70;11.70;;;3.30;99.90;;;-143.91;100.00;62816.50;5002213;27;101197;-60
2021/03/05 03:15:19;;;;;;;19.83;10.37;;;3.20;99.90;;;-143.91;100.00;62816.50;5003408;27;101021;-61
2021/03/05 03:17:47;;;;;;;13.23;9.10;;;3.20;99.90;;;-143.91;100.00;62816.50;5002125;27;100220;-61
2021/03/05 03:20:18;;;;;;;13.83;8.67;;;4.90;99.90;;;-143.91;100.00;62816.50;5018173;27;100327;-61
2021/03/05 03:22:44;;;;;;;13.80;7.97;;;3.10;99.90;;;-143.91;100.00;62816.50;4998307;27;101067;-61
2021/03/05 03:25:13;;;;;;;13.87;8.77;;;2.90;99.90;;;-143.91;100.00;62816.50;4983564;28;100460;-60
2021/03/05 03:27:40;;;;;;;12.87;8.17;;;3.00;99.90;;;-143.91;100.00;62816.50;4982934;27;100018;-61
2021/03/05 03:30:09;;;;;;;10.90;7.60;;;3.00;99.90;;;-143.91;100.00;62816.50;4983609;27;100366;-60
2021/03/05 03:32:36;;;;;;;10.47;6.90;;;2.90;99.90;;;-143.91;100.00;62816.50;4991047;27;100961;-60
2021/03/05 03:35:05;;;;;;;10.07;7.03;;;2.90;99.90;;;-143.91;100.00;62816.50;5002102;27;100251;-59
2021/03/05 03:37:33;;;;;;;11.20;6.63;;;2.90;99.90;;;-143.91;100.00;62816.50;5002605;27;100181;-60
2021/03/05 03:40:00;;;;;;;9.93;7.30;;;2.90;99.90;;;-143.91;100.00;62816.50;5003238;27;100175;-61
2021/03/05 03:42:28;;;;;;;8.57;6.90;;;2.80;99.90;;;-143.91;100.00;62816.50;5002764;27;101649;-60
2021/03/05 03:44:54;;;;;;;11.20;7.27;;;2.80;99.90;;;-143.91;100.00;62816.50;5002409;27;100798;-60
2021/03/05 03:47:22;;;;;;;8.43;6.73;;;2.70;99.90;;;-143.91;100.00;62816.50;5002139;27;100135;-61
2021/03/05 03:49:52;;;;;;;8.53;6.83;;;2.70;99.90;;;-143.91;100.00;62816.50;5002503;27;100156;-60
2021/03/05 03:52:34;;;;;;;9.60;6.60;;;2.70;99.90;;;-143.91;100.00;62816.50;4989201;27;100981;-59
2021/03/05 03:55:00;;;;;;;8.90;6.70;;;2.70;99.90;;;-143.91;100.00;62816.50;4993028;27;100853;-60
2021/03/05 03:57:30;;;;;;;9.00;7.10;;;2.60;99.90;;;-143.91;100.00;62816.50;4982809;28;100347;-60
2021/03/05 03:59:59;;;;;;;7.87;6.83;;;2.50;99.90;;;-143.91;100.00;62816.50;4988105;27;100124;-59
2021/03/05 04:02:29;;;;;;;10.27;6.43;;;2.70;99.90;;;-143.91;100.00;62816.50;4989084;27;101077;-58
2021/03/05 04:04:57;;;;;;;7.20;5.73;;;2.60;99.90;;;-143.91;100.00;62816.50;4986632;27;101411;-58
2021/03/05 04:07:26;;;;;;;6.77;4.93;;;2.50;99.90;;;-143.91;100.00;62816.50;4998576;27;100181;-59
2021/03/05 04:09:55;;;;;;;5.50;3.83;;;2.60;99.90;;;-143.91;100.00;62816.50;4983229;28;100411;-60
2021/03/05 04:12:25;;;;;;;5.83;4.07;;;2.40;99.90;;;-143.91;100.00;62816.50;4981463;27;101604;-60
2021/03/05 04:14:53;;;;;;;5.37;3.63;;;2.30;99.90;;;-143.91;100.00;62816.50;4982747;28;100672;-58
2021/03/05 04:17:19;;;;;;;6.00;3.87;;;2.40;99.90;;;-143.91;100.00;62816.50;4983418;27;100139;-59
2021/03/05 04:19:46;;;;;;;5.57;4.30;;;2.20;99.90;;;-143.91;100.00;62816.50;4983872;27;100075;-58
2021/03/05 04:22:13;;;;;;;4.73;4.07;;;2.20;99.90;;;-143.91;100.00;62816.50;4982075;28;100839;-58
2021/03/05 04:24:39;;;;;;;5.93;4.33;;;2.10;99.90;;;-143.91;100.00;62816.50;4992574;27;102042;-59
2021/03/05 04:27:11;;;;;;;6.13;4.73;;;2.10;99.90;;;-143.91;100.00;62816.50;5002263;27;100222;-60
2021/03/05 04:29:37;;;;;;;7.17;5.50;;;2.20;99.90;;;-143.91;100.00;62816.50;4995862;27;100158;-59
2021/03/05 04:32:12;;;;;;;8.43;6.10;;;2.00;99.90;;;-143.91;100.00;62816.50;4982297;28;101083;-59
2021/03/05 04:34:38;;;;;;;9.17;5.83;;;2.20;99.90;;;-143.91;100.00;62816.50;4996975;27;101636;-58
2021/03/05 04:37:04;;;;;;;8.73;5.87;;;2.10;99.90;;;-143.91;100.00;62816.50;5002017;27;100477;-59
2021/03/05 04:39:31;;;;;;;9.30;6.57;;;2.10;99.90;;;-143.91;100.00;62816.50;5002371;27;100404;-59
2021/03/05 04:41:57;;;;;;;10.93;7.13;;;2.00;99.90;;;-143.91;100.00;62816.50;5002213;27;100558;-59
2021/03/05 04:44:24;;;;;;;9.47;6.37;;;2.00;99.90;;;-143.91;100.00;62816.50;5001801;27;101091;-59
2021/03/05 04:46:51;;;;;;;9.93;6.60;;;2.00;99.90;;;-143.91;100.00;62816.50;5000576;27;100087;-59
2021/03/05 04:49:17;;;;;;;8.50;7.03;;;2.00;99.90;;;-143.91;100.00;62816.50;4989238;27;100328;-59
2021/03/05 04:51:44;;;;;;;10.33;6.27;;;1.90;99.90;;;-143.91;100.00;62816.50;5005435;27;100770;-59
2021/03/05 04:54:10;;;;;;;9.07;6.70;;;2.00;99.90;;;-143.91;100.00;62816.50;5001422;27;100555;-58
2021/03/05 04:56:37;;;;;;;9.73;6.43;;;1.80;99.90;;;-143.91;100.00;62816.50;4985137;28;100206;-59
2021/03/05 04:59:03;;;;;;;9.63;5.93;;;1.90;99.90;;;-143.91;100.00;62816.50;4984527;27;100330;-58
2021/03/05 05:01:31;;;;;;;7.70;5.40;;;1.90;99.90;;;-143.91;100.00;62816.50;4984295;27;101552;-58
2021/03/05 05:03:57;;;;;;;6.77;5.27;;;1.90;99.90;;;-143.91;100.00;62816.50;4984523;27;100611;-59
2021/03/05 05:06:23;;;;;;;6.13;4.93;;;1.80;99.90;;;-143.91;100.00;62816.50;4985195;27;100500;-58
2021/03/05 05:08:50;;;;;;;7.33;4.70;;;1.80;99.90;;;-143.91;100.00;62816.50;4985100;28;100221;-59
2021/03/05 05:11:16;;;;;;;7.13;5.10;;;1.80;99.90;;;-143.91;100.00;62816.50;4984800;28;101080;-57
2021/03/05 05:13:43;;;;;;;7.50;5.00;;;1.80;99.90;;;-143.91;100.00;62816.50;4985139;28;100540;-58
2021/03/05 05:16:09;;;;;;;8.30;5.50;;;1.70;99.90;;;-143.91;100.00;62816.50;4989262;27;100393;-56
2021/03/05 05:18:36;;;;;;;8.63;6.27;;;1.80;99.90;;;-143.91;100.00;62816.50;5005555;27;100418;-60
2021/03/05 05:21:03;;;;;;;8.40;5.53;;;1.80;99.90;;;-143.91;100.00;62816.50;4986130;27;102567;-58
2021/03/05 05:23:29;;;;;;;11.33;7.13;;;1.80;99.90;;;-143.91;100.00;62816.50;4985241;28;100861;-58
2021/03/05 05:25:56;;;;;;;10.70;7.00;;;1.70;99.90;;;-143.91;100.00;62816.50;4984512;28;100077;-58
2021/03/05 05:28:22;;;;;;;9.07;7.50;;;1.80;99.90;;;-143.91;100.00;62816.50;5004850;27;100402;-59
2021/03/05 05:30:48;;;;;;;10.33;7.63;;;1.70;99.90;;;-143.91;100.00;62816.50;5005240;27;100863;-59
2021/03/05 05:33:16;;;;;;;10.90;8.10;;;1.60;99.90;;;-143.91;100.00;62816.50;5005178;27;101449;-61
2021/03/05 05:35:43;;;;;;;10.10;7.27;;;1.70;99.90;;;-143.91;100.00;62816.50;5004897;27;100122;-58
2021/03/05 05:38:10;;;;;;;11.60;8.37;;;1.60;99.90;;;-143.91;100.00;62816.50;5003374;27;100627;-60
2021/03/05 05:40:37;;;;;;;12.33;7.63;;;1.50;99.90;;;-143.91;100.00;62816.50;4996285;27;101636;-59
2021/03/05 05:43:05;;;;;;;14.80;9.37;;;1.60;99.90;;;-143.91;100.00;62816.50;4991470;27;101677;-59
2021/03/05 05:45:31;;;;;;;10.70;7.80;;;1.50;99.90;;;-143.91;100.00;62816.50;5004797;27;100115;-60
2021/03/05 05:48:00;;;;;;;10.37;6.60;;;1.60;99.90;;;-143.91;100.00;62816.50;5004887;27;100175;-57
2021/03/05 05:50:28;;;;;;;10.17;7.47;;;2.50;99.90;;;-143.91;100.00;62816.50;5004094;27;101114;-59
2021/03/05 05:52:58;;;;;;;9.70;6.47;;;1.60;99.90;;;-143.91;100.00;62816.50;5004506;27;100655;-60
2021/03/05 05:55:25;;;;;;;9.97;6.43;;;1.50;99.90;;;-143.91;100.00;62816.50;5001214;27;100581;-60
2021/03/05 05:57:51;;;;;;;7.50;5.50;;;1.50;99.90;;;-143.91;100.00;62816.50;4985094;27;100286;-60
2021/03/05 06:00:19;;;;;;;11.73;6.77;;;1.60;99.90;;;-143.91;100.00;62816.50;4984916;28;100115;-58
2021/03/05 06:02:47;;;;;;;10.03;6.97;;;1.60;99.90;;;-143.91;100.00;62816.50;4985496;28;100759;-58
2021/03/05 06:05:15;;;;;;;9.00;5.97;;;1.60;99.90;;;-143.91;100.00;62816.50;4987035;27;100326;-59
2021/03/05 06:07:43;;;;;;;9.87;6.60;;;1.70;99.90;;;-143.91;100.00;62816.50;4985415;28;100565;-60
2021/03/05 06:10:13;;;;;;;9.40;6.03;;;1.50;99.90;;;-143.91;100.00;62816.50;4984409;28;100279;-57
2021/03/05 06:12:40;;;;;;;9.73;6.97;;;1.50;99.90;;;-143.91;100.00;62816.50;4999015;27;100872;-58
2021/03/05 06:15:08;;;;;;;9.93;7.20;;;1.50;99.90;;;-143.91;100.00;62816.50;5003692;27;100296;-59
2021/03/05 06:17:46;;;;;;;8.53;7.00;;;1.90;99.90;;;-143.91;100.00;62816.50;5004844;27;100220;-59
2021/03/05 06:20:15;;;;;;;9.83;6.97;;;1.30;99.90;;;-143.91;100.00;62816.50;4992844;27;101954;-59
2021/03/05 06:22:42;;;;;;;8.77;6.37;;;1.20;99.90;;;-143.91;100.00;62816.50;4984039;28;101571;-59
2021/03/05 06:25:34;;;;;;;11.70;7.33;;;1.30;99.90;;;-143.91;100.00;62816.50;4984072;28;100458;-59
2021/03/05 06:28:11;;;;;;;8.63;6.77;;;1.10;99.90;;;-143.91;100.00;62816.50;4997800;27;100075;-58
2021/03/05 06:30:38;;;;;;;14.43;7.23;;;2.20;99.90;;;-143.91;100.00;62816.50;5003477;27;100992;-59
2021/03/05 06:33:22;;;;;;;12.17;6.80;;;1.00;99.90;;;-143.91;100.00;62816.50;5004029;27;101317;-59
2021/03/05 06:35:49;;;;;;;12.60;7.13;;;0.90;99.90;;;-143.91;100.00;62816.50;5003224;27;100078;-62
2021/03/05 06:38:41;;;;;;;10.17;6.77;;;0.90;99.90;;;-143.91;100.00;62816.50;4984033;27;100109;-60
2021/03/05 06:41:17;;;;;;;11.53;7.57;;;0.90;99.90;;;-143.91;100.00;62816.50;4984360;27;101274;-61
2021/03/05 06:43:44;;;;;;;10.67;7.60;;;0.70;99.90;;;-143.91;100.00;62816.50;4980502;27;100642;-60
2021/03/05 06:46:38;;;;;;;10.37;7.20;;;0.80;99.90;;;-143.91;100.00;62816.50;4987895;27;100371;-60
2021/03/05 06:49:07;;;;;;;9.50;6.77;;;0.80;99.90;;;-143.91;100.00;62816.50;4984106;27;100444;-58
2021/03/05 06:51:34;;;;;;;10.27;6.63;;;1.00;99.90;;;-143.91;100.00;62816.50;4983504;28;101569;-59
2021/03/05 06:54:10;;;;;;;15.33;6.27;;;1.30;99.90;;;-143.91;100.00;62816.50;4983705;28;100377;-60
2021/03/05 06:56:38;;;;;;;9.30;6.20;;;1.60;99.90;;;-143.91;100.00;62816.50;4981483;28;100195;-59
2021/03/05 06:59:07;;;;;;;10.53;6.03;;;1.80;99.90;;;-143.91;100.00;62816.50;4985174;27;100440;-60
2021/03/05 07:01:47;;;;;;;8.13;5.03;;;2.10;99.90;;;-143.91;100.00;62816.50;4983275;28;100596;-60
2021/03/05 07:04:16;;;;;;;6.80;4.97;;;2.40;99.90;;;-143.91;100.00;62816.50;4986139;27;101122;-59
2021/03/05 07:06:43;;;;;;;7.20;5.23;;;2.80;99.90;;;-143.91;100.00;62816.50;5002648;27;100257;-60
2021/03/05 07:09:14;;;;;;;7.80;4.73;;;2.90;99.90;;;-143.91;100.00;62816.50;5002661;27;100516;-60
2021/03/05 07:11:44;;;;;;;7.03;4.33;;;3.10;99.90;;;-143.91;100.00;62816.50;5001518;27;101595;-60
2021/03/05 07:14:12;;;;;;;5.30;3.50;;;3.40;99.90;;;-143.91;100.00;62816.50;5003089;27;100707;-58
2021/03/05 07:16:42;;;;;;;7.03;4.50;;;3.60;99.90;;;-143.91;100.00;62816.50;5003306;27;100597;-60
2021/03/05 07:19:09;;;;;;;8.73;4.50;;;3.70;99.90;;;-143.91;100.00;62816.50;5001627;27;100265;-60
2021/03/05 07:21:43;;;;;;;5.90;4.33;;;3.70;99.90;;;-143.91;100.00;62816.50;5003008;27;101322;-60
2021/03/05 07:24:13;;;;;;;7.20;3.97;;;4.00;99.90;;;-143.91;100.00;62816.50;5003863;27;101628;-61
2021/03/05 07:26:53;;;;;;;7.03;4.10;;;4.30;99.90;;;-143.91;100.00;62816.50;5018047;27;100318;-60
2021/03/05 07:29:22;;;;;;;6.03;3.57;;;4.60;99.90;;;-143.91;100.00;62816.50;5003582;27;100057;-59
2021/03/05 07:32:07;;;;;;;5.80;4.10;;;4.80;99.90;;;-143.91;100.00;62816.50;4993730;27;101461;-57
2021/03/05 07:34:47;;;;;;;5.37;3.87;;;5.00;99.90;;;-143.91;100.00;62816.50;4988847;27;100982;-61
2021/03/05 07:37:15;;;;;;;5.50;3.27;;;5.20;99.90;;;-143.91;100.00;62816.50;5002767;27;100080;-59
2021/03/05 07:39:45;;;;;;;6.17;3.67;;;5.60;99.90;;;-143.91;100.00;62816.50;5002510;27;100319;-59
2021/03/05 07:42:14;;;;;;;8.27;3.60;;;6.00;99.90;;;-143.91;100.00;62816.50;5000992;27;101714;-60
2021/03/05 07:44:48;;;;;;;7.20;2.93;;;6.00;99.90;;;-143.91;100.00;62816.50;5000621;27;102246;-59
2021/03/05 07:47:15;;;;;;;5.60;3.33;;;6.20;99.90;;;-143.91;100.00;62816.50;5002395;27;100256;-59
2021/03/05 07:49:43;;;;;;;5.47;3.23;;;6.20;99.90;;;-143.91;100.00;62816.50;5003543;27;100230;-60
2021/03/05 07:52:10;;;;;;;5.23;3.03;;;6.40;99.90;;;-143.91;100.00;62816.50;4983479;27;101115;-60
2021/03/05 07:54:48;;;;;;;5.03;2.93;;;6.60;99.90;;;-143.91;100.00;62816.50;4982701;28;100456;-61
2021/03/05 07:57:48;;;;;;;5.37;2.67;;;6.70;99.90;;;-143.91;100.00;62816.50;4982721;28;100244;-61
2021/03/05 08:00:18;;;;;;;4.07;2.93;;;6.80;99.90;;;-143.91;100.00;62816.50;4996592;27;100172;-61
2021/03/05 08:02:56;;;;;;;4.00;2.67;;;6.50;98.90;;;-143.91;100.00;62816.50;4995085;27;101524;-62
2021/03/05 08:05:38;;;;;;;4.63;2.80;;;6.30;98.50;;;-143.91;100.00;62816.50;4982221;28;101704;-60
2021/03/05 08:08:23;;;;;;;5.00;3.00;;;6.00;99.70;;;-143.91;100.00;62816.50;4982443;28;99980;-59
2021/03/05 08:10:56;;;;;;;5.77;2.87;;;6.00;99.90;;;-143.91;100.00;62816.50;4982277;28;100311;-60
2021/03/05 08:13:49;;;;;;;5.47;2.83;;;6.10;99.90;;;-143.91;100.00;62816.50;4982427;28;100886;-60
2021/03/05 08:16:46;;;;;;;5.50;2.70;;;6.20;99.10;;;-143.91;100.00;62816.50;4975102;28;101220;-60
2021/03/05 08:19:46;;;;;;;5.57;2.53;;;6.40;99.60;;;-143.91;100.00;62816.50;4977528;28;100486;-60
2021/03/05 08:22:17;;;;;;;5.27;2.60;;;6.40;97.10;;;-143.91;100.00;62816.50;4982399;28;100375;-61
2021/03/05 08:24:44;;;;;;;4.60;2.40;;;6.40;96.50;;;-143.91;100.00;62816.50;4981752;28;101114;-59
2021/03/05 08:27:35;;;;;;;4.43;2.63;;;6.40;95.30;;;-143.91;100.00;62816.50;4987652;28;100254;-60
2021/03/05 08:30:08;;;;;;;6.30;2.30;;;7.50;95.20;;;-143.91;100.00;62816.50;4982914;27;100057;-60
2021/03/05 08:32:56;;;;;;;3.07;2.33;;;6.40;95.50;;;-143.91;100.00;62816.50;4962384;28;100429;-60
2021/03/05 08:35:46;;;;;;;6.63;2.33;;;6.70;95.40;;;-143.91;100.00;62816.50;4961553;28;101473;-59
2021/03/05 08:38:19;;;;;;;4.13;2.20;;;6.80;93.50;;;-143.91;100.00;62816.50;4969666;27;101121;-58
2021/03/05 08:40:52;;;;;;;4.17;2.60;;;7.00;90.60;;;-143.91;100.00;62816.50;4981799;28;100189;-59
2021/03/05 08:43:24;;;;;;;3.03;2.33;;;7.10;91.10;;;-143.91;100.00;62816.50;4982711;28;100102;-61
2021/03/05 08:45:54;;;;;;;5.63;2.30;;;7.40;90.10;;;-143.91;100.00;62816.50;4981861;28;101156;-59
2021/03/05 08:48:32;;;;;;;6.80;2.60;;;7.50;89.30;;;-143.91;100.00;62816.50;4981786;28;100501;-60
2021/03/05 08:51:20;;;;;;;3.30;1.67;;;7.50;88.80;;;-143.91;100.00;62816.50;4981963;28;99983;-60
2021/03/05 08:53:49;;;;;;;4.57;1.70;;;7.70;82.60;;;-143.91;100.00;62816.50;4996019;27;100077;-60
2021/03/05 08:56:22;;;;;;;2.93;2.00;;;8.00;85.00;;;-143.91;100.00;62816.50;4961881;28;101620;-60
2021/03/05 08:58:59;;;;;;;3.63;1.83;;;8.20;80.50;;;-143.91;100.00;62816.50;4975135;27;101307;-61
2021/03/05 09:01:31;;;;;;;4.83;1.97;;;8.40;81.00;;;-143.91;100.00;62816.50;5002113;27;100179;-59
2021/03/05 09:04:09;;;;;;;4.23;1.73;;;8.70;77.40;;;-143.91;100.00;62816.50;5002265;27;100240;-60
2021/03/05 09:06:36;;;;;;;3.57;1.63;;;8.80;76.90;;;-143.91;100.00;62816.50;5001276;27;101527;-59
2021/03/05 09:09:09;;;;;;;3.90;1.60;;;9.00;73.40;;;-143.91;100.00;62816.50;5002042;27;100494;-60
2021/03/05 09:11:36;;;;;;;3.60;1.40;;;9.30;73.00;;;-143.91;100.00;62816.50;5002247;27;100141;-60
2021/03/05 09:14:22;;;;;;;3.97;1.60;;;9.50;72.40;;;-143.91;100.00;62816.50;5001750;27;100322;-60
2021/03/05 09:17:00;;;;;;;2.90;1.40;;;9.80;64.70;;;-143.91;100.00;62816.50;5001005;27;100641;-60
2021/03/05 09:19:38;;;;;;;2.53;1.10;;;9.90;63.00;;;-143.91;100.00;62816.50;5001188;27;100974;-61
2021/03/05 09:22:16;;;;;;;2.63;1.43;;;9.90;59.50;;;-143.91;100.00;62816.50;5001905;27;100273;-60
2021/03/05 09:24:55;;;;;;;3.33;1.67;;;9.70;58.30;;;-143.91;100.00;62816.50;4961554;28;100376;-61
2021/03/05 09:27:25;;;;;;;3.13;1.63;;;9.50;61.00;;;-143.91;100.00;62816.50;4983316;27;100946;-60
2021/03/05 09:29:52;;;;;;;3.37;2.00;;;9.60;63.10;;;-143.91;100.00;62816.50;4986552;27;101307;-62
2021/03/05 09:32:20;;;;;;;3.33;2.10;;;10.00;63.20;;;-143.91;100.00;62816.50;4982575;27;101383;-60
2021/03/05 09:34:56;;;;;;;2.30;1.37;;;10.10;59.10;;;-143.91;100.00;62816.50;4984591;28;100147;-60
2021/03/05 09:37:25;;;;;;;1.57;1.10;;;10.40;59.40;;;-143.91;100.00;62816.50;4984576;28;100567;-60
2021/03/05 09:39:57;;;;;;;2.90;1.40;;;10.60;59.60;;;-143.91;100.00;62816.50;4984599;28;101338;-61
2021/03/05 09:42:46;;;;;;;2.67;1.10;;;10.80;59.20;;;-143.91;100.00;62816.50;4983785;28;100218;-61
2021/03/05 09:45:20;;;;;;;2.80;1.10;;;11.00;57.50;;;-143.91;100.00;62816.50;4984369;28;100166;-60
2021/03/05 09:47:49;;;;;;;4.17;0.93;;;11.40;57.40;;;-143.91;100.00;62816.50;4982846;28;101911;-61
2021/03/05 09:50:20;;;;;;;3.27;1.40;;;11.90;55.90;;;-143.91;100.00;62816.50;4985083;27;100705;-61
2021/03/05 09:52:47;;;;;;;1.00;0.80;;;12.00;55.30;;;-143.91;100.00;62816.50;4983624;28;100189;-61
2021/03/05 09:55:28;;;;;;;2.13;1.30;;;12.20;53.10;;;-143.91;100.00;62816.50;4993419;27;100145;-61
2021/03/05 09:57:56;;;;;;;2.97;1.20;;;12.30;50.80;;;-143.91;100.00;62816.50;5004478;27;100606;-61
2021/03/05 10:00:30;;;;;;;2.87;1.50;;;12.60;52.20;;;-143.91;100.00;62816.50;5004909;27;100343;-61
2021/03/05 10:03:06;;;;;;;2.50;1.40;;;12.70;51.90;;;-143.91;100.00;62816.50;4994711;27;100091;-60
2021/03/05 10:05:37;;;;;;;2.20;1.00;;;13.00;50.90;;;-143.91;100.00;62816.50;4983992;28;100266;-61
2021/03/05 10:08:17;;;;;;;2.43;1.20;;;12.90;49.20;;;-143.91;100.00;62816.50;5000550;27;101499;-60
2021/03/05 10:11:06;;;;;;;1.77;0.77;;;12.90;46.90;;;-143.91;100.00;62816.50;5005381;27;100658;-60